Time;durP1;ratioP1;P1;durP2;ratioP2;P2;SDS_P1;SDS_P2;PMS_P1;PMS_P2;Temp;Humidity;BMP_temperature;BMP_pressure;BME280_temperature;BME280_humidity;BME280_pressure;Samples;Min_cycle;Max_cycle;Signal;HPM_P1;HPM_P2
2021/05/14 00:00:39;;;;;;;1.40;0.88;;;22.80;42.20;;;;;;5015426;28;20095;-55
2021/05/14 00:03:05;;;;;;;0.95;0.75;;;22.80;42.30;;;;;;5015597;28;20041;-55
2021/05/14 00:05:34;;;;;;;0.80;0.80;;;22.80;42.30;;;;;;5015809;28;20307;-52
2021/05/14 00:08:00;;;;;;;0.70;0.68;;;22.70;42.30;;;;;;5015574;28;20330;-55
2021/05/14 00:10:26;;;;;;;1.13;0.90;;;22.80;42.40;;;;;;5015532;28;20033;-52
2021/05/14 00:12:52;;;;;;;1.55;0.90;;;22.70;42.30;;;;;;5015805;28;20050;-52
2021/05/14 00:15:19;;;;;;;1.15;0.77;;;22.70;42.40;;;;;;5015526;28;20038;-52
2021/05/14 00:17:45;;;;;;;0.85;0.70;;;22.70;42.40;;;;;;5015524;28;20042;-53
2021/05/14 00:20:11;;;;;;;0.70;0.60;;;22.70;42.50;;;;;;5015450;28;20036;-51
2021/05/14 00:22:38;;;;;;;1.05;0.82;;;22.70;42.40;;;;;;5015125;28;20045;-54
2021/05/14 00:25:08;;;;;;;1.30;0.80;;;22.70;42.50;;;;;;5015959;28;20033;-57
2021/05/14 00:27:34;;;;;;;1.00;0.77;;;22.70;42.50;;;;;;5015190;28;20104;-55
2021/05/14 00:29:59;;;;;;;0.80;0.65;;;22.70;42.50;;;;;;5015001;28;20125;-54
2021/05/14 00:32:26;;;;;;;0.95;0.75;;;22.70;42.50;;;;;;5015203;28;20038;-53
2021/05/14 00:34:52;;;;;;;1.15;0.75;;;22.70;42.50;;;;;;5014479;28;20377;-56
2021/05/14 00:37:18;;;;;;;0.93;0.90;;;22.70;42.50;;;;;;5015477;28;20030;-53
2021/05/14 00:39:44;;;;;;;1.58;1.00;;;22.70;42.50;;;;;;5015311;28;20030;-52
2021/05/14 00:42:10;;;;;;;0.80;0.68;;;22.70;42.50;;;;;;5015014;28;20022;-53
2021/05/14 00:44:38;;;;;;;0.95;0.60;;;22.70;42.50;;;;;;5015583;28;20350;-49
2021/05/14 00:47:08;;;;;;;1.48;0.88;;;22.70;42.60;;;;;;5014068;28;20034;-51
2021/05/14 00:49:35;;;;;;;0.80;0.80;;;22.70;42.60;;;;;;5015595;28;20069;-55
2021/05/14 00:52:02;;;;;;;1.00;0.73;;;22.60;42.50;;;;;;5014835;28;20029;-55
2021/05/14 00:54:29;;;;;;;1.00;0.75;;;22.70;42.60;;;;;;5014967;28;20030;-55
2021/05/14 00:56:55;;;;;;;1.10;0.98;;;22.60;42.60;;;;;;5014440;28;20049;-57
2021/05/14 00:59:21;;;;;;;1.05;0.85;;;22.60;42.60;;;;;;5014758;28;20038;-57
2021/05/14 01:01:48;;;;;;;1.10;0.80;;;22.60;42.60;;;;;;5014814;28;20026;-56
2021/05/14 01:04:13;;;;;;;0.80;0.80;;;22.60;42.60;;;;;;5014924;28;20363;-54
2021/05/14 01:06:39;;;;;;;0.82;0.80;;;22.60;42.60;;;;;;5014792;28;20033;-54
2021/05/14 01:09:05;;;;;;;1.30;0.77;;;22.60;42.70;;;;;;5015343;28;20037;-56
2021/05/14 01:11:32;;;;;;;1.38;0.85;;;22.60;42.70;;;;;;5014400;28;20057;-52
2021/05/14 01:13:57;;;;;;;1.00;0.90;;;22.60;42.80;;;;;;5014461;28;20070;-55
2021/05/14 01:16:24;;;;;;;2.00;1.10;;;22.60;42.80;;;;;;5014080;28;20056;-50
2021/05/14 01:18:51;;;;;;;1.25;1.00;;;22.60;42.80;;;;;;5015013;28;20037;-56
2021/05/14 01:21:17;;;;;;;1.15;0.80;;;22.60;42.90;;;;;;5014532;28;20029;-53
2021/05/14 01:23:43;;;;;;;0.80;0.80;;;22.60;42.90;;;;;;5015086;28;20406;-57
2021/05/14 01:26:14;;;;;;;0.90;0.73;;;22.60;42.90;;;;;;5012949;28;20033;-52
2021/05/14 01:28:41;;;;;;;1.10;0.98;;;22.60;43.00;;;;;;5005282;28;20038;-58
2021/05/14 01:31:07;;;;;;;1.08;0.98;;;22.60;43.00;;;;;;5014632;28;20131;-53
2021/05/14 01:33:33;;;;;;;0.80;0.80;;;22.60;43.00;;;;;;5014778;28;20068;-58
2021/05/14 01:36:01;;;;;;;1.90;1.38;;;22.50;43.00;;;;;;5014316;28;20042;-50
2021/05/14 01:38:27;;;;;;;1.30;1.00;;;22.60;43.00;;;;;;5013807;28;20052;-52
2021/05/14 01:40:52;;;;;;;1.88;1.17;;;22.60;43.10;;;;;;5013928;28;20030;-53
2021/05/14 01:43:18;;;;;;;1.10;0.95;;;22.50;43.00;;;;;;5014453;28;20065;-54
2021/05/14 01:45:44;;;;;;;1.60;1.20;;;22.50;43.00;;;;;;5013790;28;20030;-55
2021/05/14 01:48:11;;;;;;;1.77;1.05;;;22.50;43.00;;;;;;5014406;28;20121;-60
2021/05/14 01:50:37;;;;;;;1.05;1.00;;;22.50;43.00;;;;;;5014061;28;20030;-53
2021/05/14 01:53:03;;;;;;;1.17;1.08;;;22.50;43.00;;;;;;5013996;28;20359;-57
2021/05/14 01:55:29;;;;;;;1.35;1.25;;;22.50;43.00;;;;;;5014313;28;20026;-57
2021/05/14 01:57:55;;;;;;;1.20;1.02;;;22.50;43.10;;;;;;5013567;28;20041;-59
2021/05/14 02:00:22;;;;;;;1.30;1.20;;;22.50;43.10;;;;;;5014348;28;20034;-57
2021/05/14 02:02:47;;;;;;;1.20;1.10;;;22.50;43.10;;;;;;5013937;28;20111;-51
2021/05/14 02:05:14;;;;;;;1.40;1.10;;;22.50;43.10;;;;;;5013968;28;20351;-56
2021/05/14 02:07:39;;;;;;;1.48;1.20;;;22.50;43.10;;;;;;5013935;28;20038;-49
2021/05/14 02:10:07;;;;;;;1.50;1.40;;;22.50;43.10;;;;;;5013704;28;20091;-54
2021/05/14 02:12:33;;;;;;;1.45;1.20;;;22.50;43.20;;;;;;5013271;28;20125;-55
2021/05/14 02:14:59;;;;;;;2.05;1.50;;;22.50;43.20;;;;;;5014116;28;20145;-50
2021/05/14 02:17:25;;;;;;;1.92;1.40;;;22.50;43.30;;;;;;5013180;28;20050;-55
2021/05/14 02:19:53;;;;;;;2.17;1.70;;;22.50;43.30;;;;;;5014241;28;20444;-57
2021/05/14 02:22:19;;;;;;;1.25;1.15;;;22.50;43.20;;;;;;5013301;28;20338;-53
2021/05/14 02:24:45;;;;;;;2.03;1.40;;;22.50;43.30;;;;;;5013815;28;20037;-53
2021/05/14 02:27:10;;;;;;;1.65;1.20;;;22.50;43.90;;;;;;5011940;28;20402;-56
2021/05/14 02:29:36;;;;;;;1.50;1.40;;;22.50;43.30;;;;;;5013787;28;20038;-58
2021/05/14 02:32:04;;;;;;;1.88;1.20;;;22.40;43.20;;;;;;5013986;28;20136;-53
2021/05/14 02:34:30;;;;;;;1.60;1.42;;;22.40;43.20;;;;;;5014233;28;20048;-52
2021/05/14 02:36:56;;;;;;;1.70;1.50;;;22.50;43.30;;;;;;5013165;28;20033;-53
2021/05/14 02:39:22;;;;;;;1.48;1.38;;;22.40;43.30;;;;;;5013450;28;20022;-53
2021/05/14 02:41:47;;;;;;;1.80;1.50;;;22.40;43.30;;;;;;5013360;28;20041;-57
2021/05/14 02:44:13;;;;;;;1.67;1.58;;;22.40;43.30;;;;;;5012054;28;20411;-56
2021/05/14 02:46:41;;;;;;;1.70;1.40;;;22.40;43.30;;;;;;5014208;28;20026;-51
2021/05/14 02:49:07;;;;;;;1.67;1.55;;;22.40;43.40;;;;;;5013395;28;20394;-54
2021/05/14 02:51:33;;;;;;;1.48;1.38;;;22.40;43.30;;;;;;5013762;28;20073;-51
2021/05/14 02:53:59;;;;;;;1.40;1.30;;;22.40;43.30;;;;;;5013601;28;20107;-55
2021/05/14 02:56:24;;;;;;;1.80;1.65;;;22.40;43.30;;;;;;5013327;28;20042;-51
2021/05/14 02:58:50;;;;;;;1.83;1.50;;;22.40;43.40;;;;;;5014309;28;20052;-56
2021/05/14 03:01:16;;;;;;;1.67;1.50;;;22.40;43.40;;;;;;5012314;28;20041;-54
2021/05/14 03:03:42;;;;;;;1.80;1.52;;;22.40;43.40;;;;;;5016259;28;20025;-55
2021/05/14 03:06:08;;;;;;;2.35;1.85;;;22.40;43.40;;;;;;5016754;28;20335;-49
2021/05/14 03:08:34;;;;;;;1.90;1.67;;;22.40;43.40;;;;;;5017438;28;20045;-55
2021/05/14 03:11:00;;;;;;;2.58;1.92;;;22.40;43.40;;;;;;5017394;28;20057;-57
2021/05/14 03:13:26;;;;;;;2.78;1.40;;;22.40;43.40;;;;;;5016925;28;20097;-48
2021/05/14 03:15:52;;;;;;;1.50;1.40;;;22.40;43.40;;;;;;5017070;28;20495;-50
2021/05/14 03:18:18;;;;;;;1.60;1.50;;;22.40;43.40;;;;;;5016967;28;20046;-54
2021/05/14 03:20:43;;;;;;;2.60;1.58;;;22.40;43.50;;;;;;5016947;28;20054;-52
2021/05/14 03:23:09;;;;;;;2.10;1.50;;;22.30;43.40;;;;;;5017405;28;20037;-55
2021/05/14 03:25:35;;;;;;;1.67;1.58;;;22.30;43.50;;;;;;5016813;28;20030;-58
2021/05/14 03:28:01;;;;;;;1.63;1.40;;;22.40;43.50;;;;;;5017175;28;20041;-51
2021/05/14 03:30:27;;;;;;;2.17;1.88;;;22.40;43.50;;;;;;5016599;28;20101;-55
2021/05/14 03:32:53;;;;;;;2.08;1.88;;;22.30;43.50;;;;;;5017331;28;20044;-54
2021/05/14 03:35:18;;;;;;;2.33;1.60;;;22.30;43.50;;;;;;5016111;28;20026;-54
2021/05/14 03:37:44;;;;;;;1.77;1.67;;;22.30;43.50;;;;;;5015669;28;20045;-52
2021/05/14 03:40:32;;;;;;;1.67;1.55;;;22.40;43.60;;;;;;5016007;28;20446;-57
2021/05/14 03:42:59;;;;;;;2.42;1.63;;;22.30;43.50;;;;;;5016593;28;20171;-54
2021/05/14 03:45:25;;;;;;;1.40;1.30;;;22.40;43.60;;;;;;5015944;28;20026;-54
2021/05/14 03:47:54;;;;;;;2.00;1.70;;;22.30;43.50;;;;;;5016098;28;20026;-55
2021/05/14 03:50:20;;;;;;;1.42;1.33;;;22.40;43.60;;;;;;5016869;28;20052;-58
2021/05/14 03:52:46;;;;;;;1.85;1.67;;;22.30;43.50;;;;;;5015692;28;20034;-57
2021/05/14 03:55:13;;;;;;;1.40;1.30;;;22.30;43.50;;;;;;5016102;28;20030;-50
2021/05/14 03:57:39;;;;;;;2.10;1.60;;;22.30;43.50;;;;;;5015674;28;20060;-52
2021/05/14 04:00:06;;;;;;;1.70;1.58;;;22.30;43.50;;;;;;5016269;28;20033;-50
2021/05/14 04:02:31;;;;;;;1.58;1.48;;;22.30;43.60;;;;;;5015869;28;20398;-57
2021/05/14 04:04:58;;;;;;;1.42;1.33;;;22.30;43.60;;;;;;5015248;28;20030;-55
2021/05/14 04:07:25;;;;;;;1.30;1.20;;;22.30;43.60;;;;;;5015531;28;20096;-57
2021/05/14 04:10:06;;;;;;;1.50;1.40;;;22.30;43.60;;;;;;5015609;28;20095;-54
2021/05/14 04:15:12;;;;;;;1.83;1.50;;;22.30;43.70;;;;;;5015720;28;20065;-54
2021/05/14 04:17:38;;;;;;;1.80;1.50;;;22.30;43.60;;;;;;5015640;28;20041;-55
2021/05/14 04:20:05;;;;;;;1.48;1.38;;;22.30;43.70;;;;;;5014640;28;20393;-50
2021/05/14 04:22:31;;;;;;;1.83;1.48;;;22.30;43.70;;;;;;5015514;28;20112;-50
2021/05/14 04:24:57;;;;;;;1.55;1.40;;;22.30;43.70;;;;;;5015664;28;20389;-50
2021/05/14 04:27:23;;;;;;;1.63;1.52;;;22.30;43.70;;;;;;5015753;28;20065;-52
2021/05/14 04:29:49;;;;;;;1.65;1.40;;;22.30;43.70;;;;;;5015530;28;20034;-57
2021/05/14 04:32:15;;;;;;;1.35;1.23;;;22.20;43.70;;;;;;5015867;28;20052;-51
2021/05/14 04:34:41;;;;;;;1.83;1.20;;;22.30;43.70;;;;;;5014500;28;20424;-54
2021/05/14 04:37:08;;;;;;;1.27;1.17;;;22.20;43.70;;;;;;5014835;28;20034;-56
2021/05/14 04:39:34;;;;;;;1.75;1.30;;;22.30;43.70;;;;;;5014623;28;20030;-53
2021/05/14 04:42:01;;;;;;;1.83;1.40;;;22.30;43.80;;;;;;5015274;28;20084;-50
2021/05/14 04:44:27;;;;;;;1.20;1.10;;;22.20;43.70;;;;;;5014391;28;20033;-52
2021/05/14 04:46:53;;;;;;;1.42;1.10;;;22.30;43.80;;;;;;5015522;28;20041;-57
2021/05/14 04:49:19;;;;;;;1.30;1.20;;;22.20;43.70;;;;;;5014479;28;20100;-54
2021/05/14 04:51:44;;;;;;;1.38;1.27;;;22.20;43.70;;;;;;5015776;28;20099;-55
2021/05/14 04:54:10;;;;;;;1.30;1.20;;;22.20;43.70;;;;;;5014664;28;20034;-52
2021/05/14 04:56:36;;;;;;;1.40;1.30;;;22.30;43.80;;;;;;5015560;28;20456;-50
2021/05/14 04:59:02;;;;;;;1.25;1.15;;;22.30;43.70;;;;;;5014807;28;20387;-54
2021/05/14 05:01:28;;;;;;;1.20;1.10;;;22.20;43.70;;;;;;5015619;28;20038;-50
2021/05/14 05:03:55;;;;;;;1.48;1.38;;;22.20;43.70;;;;;;5013114;28;20102;-54
2021/05/14 05:06:22;;;;;;;1.42;1.20;;;22.20;43.70;;;;;;5015489;28;20180;-54
2021/05/14 05:08:47;;;;;;;1.45;1.25;;;22.20;43.70;;;;;;5014279;28;20040;-49
2021/05/14 05:11:14;;;;;;;1.48;1.27;;;22.20;43.70;;;;;;5015335;28;20022;-55
2021/05/14 05:13:40;;;;;;;1.58;1.17;;;22.20;43.70;;;;;;5014004;28;20045;-52
2021/05/14 05:16:06;;;;;;;1.23;1.13;;;22.20;43.80;;;;;;5015185;28;20029;-56
2021/05/14 05:18:32;;;;;;;1.25;1.05;;;22.20;43.70;;;;;;5014921;28;20125;-53
2021/05/14 05:20:58;;;;;;;1.30;1.05;;;22.20;43.70;;;;;;5015827;28;20034;-46
2021/05/14 05:23:24;;;;;;;1.63;1.15;;;22.20;43.70;;;;;;5015205;28;20434;-50
2021/05/14 05:25:50;;;;;;;1.08;0.95;;;22.20;43.70;;;;;;5016551;28;20061;-49
2021/05/14 05:28:27;;;;;;;1.35;1.17;;;22.20;43.70;;;;;;5015923;28;20034;-50
2021/05/14 05:30:52;;;;;;;1.20;1.10;;;22.20;43.70;;;;;;5015696;28;20125;-49
2021/05/14 05:33:19;;;;;;;1.55;1.10;;;22.20;43.70;;;;;;5015026;28;20104;-51
2021/05/14 05:35:45;;;;;;;1.77;1.38;;;22.20;43.70;;;;;;5016693;28;20083;-56
2021/05/14 05:38:19;;;;;;;1.60;1.50;;;22.20;43.70;;;;;;5014451;28;20120;-57
2021/05/14 05:40:45;;;;;;;1.40;1.30;;;22.20;43.70;;;;;;5015360;28;20034;-54
2021/05/14 05:43:11;;;;;;;1.58;1.42;;;22.20;43.70;;;;;;5014046;28;20322;-50
2021/05/14 05:45:37;;;;;;;1.27;1.17;;;22.20;43.70;;;;;;5014899;28;20033;-55
2021/05/14 05:48:03;;;;;;;1.45;1.00;;;22.20;43.70;;;;;;5013199;28;20038;-53
2021/05/14 05:50:29;;;;;;;1.17;1.08;;;22.20;43.70;;;;;;5015195;28;20033;-50
2021/05/14 05:52:55;;;;;;;1.90;1.40;;;22.20;43.70;;;;;;5015843;28;20096;-53
2021/05/14 05:55:21;;;;;;;1.30;1.20;;;22.20;43.70;;;;;;5016037;28;20030;-51
2021/05/14 05:57:48;;;;;;;1.50;1.20;;;22.20;43.70;;;;;;5015646;28;20045;-49
2021/05/14 06:00:14;;;;;;;1.85;1.40;;;22.20;43.70;;;;;;5010867;28;20061;-50
2021/05/14 06:02:40;;;;;;;1.33;1.10;;;22.20;43.70;;;;;;5008857;28;20065;-53
2021/05/14 06:05:08;;;;;;;1.95;1.13;;;22.20;43.70;;;;;;5014054;28;20444;-58
2021/05/14 06:07:34;;;;;;;1.63;1.17;;;22.20;43.80;;;;;;5014566;28;20049;-55
2021/05/14 06:10:00;;;;;;;1.55;1.20;;;22.20;43.80;;;;;;5013020;28;20030;-51
2021/05/14 06:12:25;;;;;;;2.85;1.08;;;22.20;43.80;;;;;;5014283;28;20100;-54
2021/05/14 06:14:51;;;;;;;1.77;1.50;;;22.20;43.80;;;;;;5013586;28;20049;-54
2021/05/14 06:17:17;;;;;;;1.55;1.20;;;22.20;43.80;;;;;;5012624;28;21649;-54
2021/05/14 06:19:46;;;;;;;1.50;1.30;;;22.20;43.80;;;;;;5012676;28;20096;-50
2021/05/14 06:22:12;;;;;;;1.30;1.17;;;22.20;43.90;;;;;;4996498;28;20037;-56
2021/05/14 06:24:38;;;;;;;1.50;1.27;;;22.20;43.90;;;;;;5013256;28;20026;-57
2021/05/14 06:27:04;;;;;;;1.15;1.05;;;22.20;43.90;;;;;;5012702;28;20464;-55
2021/05/14 06:29:30;;;;;;;1.95;1.50;;;22.20;43.90;;;;;;5011974;28;20057;-52
2021/05/14 06:31:55;;;;;;;1.65;1.30;;;22.20;43.90;;;;;;5013357;28;20057;-52
2021/05/14 06:34:21;;;;;;;1.50;1.40;;;22.20;44.00;;;;;;5012658;28;20022;-56
2021/05/14 06:36:47;;;;;;;2.08;1.40;;;22.20;44.00;;;;;;5017077;28;20056;-50
2021/05/14 06:39:13;;;;;;;1.50;1.20;;;22.20;44.00;;;;;;5017364;28;20346;-56
2021/05/14 06:41:38;;;;;;;2.13;1.40;;;22.20;44.00;;;;;;5015964;28;20104;-52
2021/05/14 06:44:04;;;;;;;2.42;1.42;;;22.20;44.00;;;;;;5017307;28;20034;-55
2021/05/14 06:46:31;;;;;;;2.80;1.63;;;22.20;44.00;;;;;;5015638;28;20084;-54
2021/05/14 06:48:57;;;;;;;1.45;1.35;;;22.20;44.10;;;;;;5017076;28;20037;-50
2021/05/14 06:51:23;;;;;;;3.33;1.48;;;22.20;44.00;;;;;;5018051;28;20022;-60
2021/05/14 06:53:50;;;;;;;1.70;1.50;;;22.20;44.00;;;;;;5016749;28;20052;-53
2021/05/14 06:56:16;;;;;;;2.22;1.65;;;22.20;44.10;;;;;;5017089;28;20030;-51
2021/05/14 06:58:42;;;;;;;1.50;1.35;;;22.20;44.10;;;;;;5015424;28;20496;-50
2021/05/14 07:01:08;;;;;;;3.40;1.88;;;22.30;44.10;;;;;;5016853;28;20061;-53
2021/05/14 07:03:34;;;;;;;1.65;1.30;;;22.30;44.00;;;;;;5013974;28;20121;-52
2021/05/14 07:06:00;;;;;;;1.60;1.40;;;22.40;44.00;;;;;;5016936;28;20033;-54
2021/05/14 07:08:26;;;;;;;2.17;1.35;;;22.40;43.80;;;;;;5017720;28;20062;-55
2021/05/14 07:10:52;;;;;;;1.25;1.15;;;22.40;43.60;;;;;;5017344;28;20072;-49
2021/05/14 07:13:18;;;;;;;2.03;1.40;;;22.50;43.60;;;;;;5015801;28;20070;-57
2021/05/14 07:15:44;;;;;;;1.88;1.27;;;22.50;43.40;;;;;;5016522;28;20062;-52
2021/05/14 07:18:10;;;;;;;1.75;1.20;;;22.50;43.40;;;;;;5014076;28;20461;-51
2021/05/14 07:20:36;;;;;;;1.83;1.40;;;22.60;43.30;;;;;;5015922;28;20355;-53
2021/05/14 07:23:02;;;;;;;2.10;1.58;;;22.60;43.30;;;;;;5014762;28;20034;-57
2021/05/14 07:25:28;;;;;;;1.77;1.40;;;22.70;43.30;;;;;;5016680;28;20386;-54
2021/05/14 07:27:54;;;;;;;2.38;1.58;;;22.70;43.20;;;;;;5018964;28;20042;-56
2021/05/14 07:30:20;;;;;;;2.92;1.30;;;22.70;43.20;;;;;;5015686;28;20107;-56
2021/05/14 07:32:46;;;;;;;1.58;1.27;;;22.70;43.10;;;;;;5015222;28;20347;-54
2021/05/14 07:35:12;;;;;;;1.63;1.50;;;22.80;43.10;;;;;;5015366;28;20193;-51
2021/05/14 07:37:38;;;;;;;2.47;1.60;;;22.80;43.00;;;;;;5014067;28;20164;-56
2021/05/14 07:40:05;;;;;;;2.10;1.60;;;22.80;42.90;;;;;;5016812;28;20073;-59
2021/05/14 07:42:30;;;;;;;1.73;1.50;;;22.80;43.50;;;;;;5016171;28;20100;-54
2021/05/14 07:44:56;;;;;;;1.70;1.58;;;22.80;42.80;;;;;;5016081;28;20046;-55
2021/05/14 07:47:22;;;;;;;1.55;1.45;;;22.80;42.70;;;;;;5016173;28;20029;-56
2021/05/14 07:49:48;;;;;;;2.42;1.67;;;22.90;42.70;;;;;;5016832;28;20030;-54
2021/05/14 07:52:14;;;;;;;2.53;1.65;;;22.90;42.70;;;;;;5015996;28;20132;-57
2021/05/14 07:54:41;;;;;;;2.58;1.80;;;22.90;42.70;;;;;;5016099;28;20349;-51
2021/05/14 07:57:07;;;;;;;3.38;1.95;;;22.90;42.60;;;;;;5005281;28;20033;-59
2021/05/14 07:59:33;;;;;;;2.00;1.60;;;22.90;42.60;;;;;;5015905;28;20366;-54
2021/05/14 08:01:59;;;;;;;2.17;1.80;;;23.00;42.60;;;;;;5015202;28;20038;-53
2021/05/14 08:04:25;;;;;;;1.98;1.77;;;22.90;42.50;;;;;;5014953;28;20037;-54
2021/05/14 08:06:51;;;;;;;1.80;1.70;;;23.00;42.50;;;;;;5015009;28;20045;-52
2021/05/14 08:09:22;;;;;;;2.05;1.70;;;23.00;42.40;;;;;;5015557;28;20029;-53
2021/05/14 08:11:49;;;;;;;2.42;1.85;;;23.00;42.40;;;;;;5014345;28;20646;-57
2021/05/14 08:14:15;;;;;;;1.88;1.77;;;23.00;42.30;;;;;;5014806;28;20343;-56
2021/05/14 08:16:41;;;;;;;1.90;1.70;;;23.00;42.30;;;;;;5015126;28;20026;-49
2021/05/14 08:19:07;;;;;;;2.17;1.98;;;23.00;42.30;;;;;;5013369;28;20050;-52
2021/05/14 08:21:33;;;;;;;2.17;1.90;;;23.00;42.20;;;;;;5013929;28;20030;-51
2021/05/14 08:23:59;;;;;;;1.98;1.70;;;23.00;42.20;;;;;;5015673;28;20350;-57
2021/05/14 08:26:24;;;;;;;2.22;2.03;;;23.00;42.20;;;;;;5015640;28;20033;-51
2021/05/14 08:28:50;;;;;;;2.70;1.83;;;23.00;42.10;;;;;;5015852;28;20030;-55
2021/05/14 08:31:16;;;;;;;2.00;1.73;;;23.00;42.10;;;;;;5015347;28;20319;-51
2021/05/14 08:33:42;;;;;;;2.10;1.85;;;23.00;42.10;;;;;;5015613;28;20057;-53
2021/05/14 08:36:09;;;;;;;2.58;1.95;;;23.00;42.00;;;;;;5015109;28;20038;-50
2021/05/14 08:38:35;;;;;;;2.00;1.75;;;23.10;42.30;;;;;;5014100;28;20120;-56
2021/05/14 08:41:08;;;;;;;1.92;1.67;;;23.10;41.90;;;;;;5014998;28;20061;-50
2021/05/14 08:43:35;;;;;;;1.95;1.70;;;23.10;41.90;;;;;;5011379;28;20054;-55
2021/05/14 08:46:02;;;;;;;2.47;1.90;;;23.10;41.80;;;;;;5015982;28;20538;-54
2021/05/14 08:48:30;;;;;;;2.40;2.10;;;23.10;41.80;;;;;;5014958;28;20073;-50
2021/05/14 08:50:56;;;;;;;2.42;1.98;;;23.10;41.80;;;;;;5015242;28;20065;-54
2021/05/14 08:53:22;;;;;;;2.65;2.20;;;23.10;41.70;;;;;;5014839;28;20060;-55
2021/05/14 08:55:48;;;;;;;4.50;2.20;;;23.10;41.70;;;;;;5015548;28;20315;-55
2021/05/14 08:58:14;;;;;;;2.30;2.10;;;23.10;41.70;;;;;;5014333;28;20038;-52
2021/05/14 09:00:40;;;;;;;2.25;2.00;;;23.10;41.70;;;;;;5014360;28;20091;-54
2021/05/14 09:03:09;;;;;;;2.00;1.80;;;23.10;41.60;;;;;;5014311;28;20445;-53
2021/05/14 09:05:36;;;;;;;2.50;2.30;;;23.10;41.60;;;;;;5015220;28;20033;-59
2021/05/14 09:08:03;;;;;;;2.38;1.98;;;23.10;41.60;;;;;;5014851;28;20030;-55
2021/05/14 09:10:32;;;;;;;2.10;1.90;;;23.10;41.60;;;;;;5013607;28;20036;-52
2021/05/14 09:12:58;;;;;;;2.22;2.00;;;23.10;41.60;;;;;;5014052;28;20021;-55
2021/05/14 09:15:30;;;;;;;2.38;1.98;;;23.10;41.60;;;;;;5013758;28;20030;-57
2021/05/14 09:18:05;;;;;;;2.50;1.98;;;23.10;41.60;;;;;;5014678;28;20128;-61
2021/05/14 09:20:55;;;;;;;3.33;2.30;;;23.20;41.60;;;;;;5014782;28;20428;-58
2021/05/14 09:23:23;;;;;;;1.85;1.75;;;23.20;41.50;;;;;;5002001;28;20070;-60
2021/05/14 09:25:53;;;;;;;2.50;2.30;;;23.20;41.50;;;;;;5014630;28;20052;-59
2021/05/14 09:28:50;;;;;;;2.25;1.92;;;23.20;41.40;;;;;;5014540;28;20025;-56
2021/05/14 09:31:30;;;;;;;4.07;1.98;;;23.10;41.30;;;;;;5011084;28;20034;-61
2021/05/14 09:33:59;;;;;;;1.85;1.75;;;23.10;41.20;;;;;;4995422;28;20038;-63
2021/05/14 09:36:33;;;;;;;2.03;1.83;;;23.20;41.30;;;;;;5006123;28;20033;-57
2021/05/14 09:39:03;;;;;;;1.98;1.52;;;23.20;41.20;;;;;;5014605;28;20045;-59
2021/05/14 09:41:37;;;;;;;3.53;2.22;;;23.20;41.20;;;;;;5015145;28;20033;-60
2021/05/14 09:44:14;;;;;;;2.67;2.20;;;23.20;41.20;;;;;;5014159;28;20080;-61
2021/05/14 09:46:48;;;;;;;2.58;2.03;;;23.20;41.10;;;;;;5012903;28;20416;-63
2021/05/14 09:49:18;;;;;;;2.22;1.73;;;23.30;41.10;;;;;;5012100;28;20084;-58
2021/05/14 09:51:58;;;;;;;1.88;1.70;;;23.30;41.10;;;;;;5014602;28;20404;-60
2021/05/14 09:54:32;;;;;;;1.98;1.80;;;23.30;40.90;;;;;;5013159;28;20065;-57
2021/05/14 09:59:43;;;;;;;1.58;1.48;;;23.30;40.90;;;;;;5013958;28;20124;-56
2021/05/14 10:02:26;;;;;;;2.78;1.90;;;23.30;40.80;;;;;;5014662;28;20025;-58
2021/05/14 10:04:52;;;;;;;1.85;1.58;;;23.30;40.60;;;;;;5014247;28;20337;-51
2021/05/14 10:07:18;;;;;;;2.35;2.13;;;23.30;40.60;;;;;;5013589;28;20096;-61
2021/05/14 10:09:52;;;;;;;4.68;1.95;;;23.40;40.60;;;;;;5013924;28;20400;-57
2021/05/14 10:12:19;;;;;;;2.50;2.00;;;23.40;40.50;;;;;;5012692;28;20512;-62
2021/05/14 10:14:45;;;;;;;2.40;2.08;;;23.40;40.50;;;;;;5012792;28;20285;-59
2021/05/14 10:17:11;;;;;;;2.70;2.17;;;23.40;40.40;;;;;;5012390;28;20109;-58
2021/05/14 10:19:38;;;;;;;4.00;2.40;;;23.40;40.30;;;;;;5014911;28;20048;-60
2021/05/14 10:22:05;;;;;;;2.80;2.00;;;23.40;40.20;;;;;;5011669;28;20462;-60
2021/05/14 10:24:41;;;;;;;6.13;2.20;;;23.50;40.20;;;;;;5013372;28;20034;-61
2021/05/14 10:27:20;;;;;;;3.15;2.20;;;23.50;40.00;;;;;;5014003;28;20038;-62
2021/05/14 10:29:48;;;;;;;3.38;2.20;;;23.50;40.00;;;;;;5006416;28;20107;-62
2021/05/14 10:32:17;;;;;;;3.13;2.47;;;23.50;40.00;;;;;;5013614;28;20463;-62
2021/05/14 10:34:42;;;;;;;3.45;2.13;;;23.50;39.90;;;;;;5016438;28;20029;-60
2021/05/14 10:37:08;;;;;;;4.88;2.38;;;23.50;39.90;;;;;;5014696;28;20096;-58
2021/05/14 10:39:36;;;;;;;2.80;2.03;;;23.50;39.90;;;;;;5014445;28;20400;-57
2021/05/14 10:42:08;;;;;;;3.75;2.80;;;23.50;39.80;;;;;;5015255;28;20021;-60
2021/05/14 10:44:47;;;;;;;2.08;1.70;;;23.50;39.80;;;;;;5009096;28;20031;-61
2021/05/14 10:47:25;;;;;;;2.10;1.88;;;23.60;39.70;;;;;;5012860;28;20033;-61
2021/05/14 10:50:04;;;;;;;1.70;1.58;;;23.60;39.70;;;;;;5011938;28;20041;-59
2021/05/14 10:52:32;;;;;;;1.80;1.70;;;23.60;39.70;;;;;;5012273;28;20498;-55
2021/05/14 10:54:58;;;;;;;2.40;1.60;;;23.60;39.70;;;;;;5012521;28;20045;-61
2021/05/14 10:57:53;;;;;;;1.80;1.70;;;23.60;39.70;;;;;;5011792;28;20045;-57
2021/05/14 11:00:21;;;;;;;2.08;1.77;;;23.60;39.70;;;;;;4991126;28;20120;-53
2021/05/14 11:03:13;;;;;;;1.67;1.50;;;23.70;39.70;;;;;;5011345;28;20026;-60
2021/05/14 11:05:43;;;;;;;2.13;1.73;;;23.70;39.60;;;;;;5010692;28;20326;-60
2021/05/14 11:08:10;;;;;;;1.83;1.60;;;23.70;39.60;;;;;;5015400;28;20323;-58
2021/05/14 11:10:37;;;;;;;1.90;1.52;;;23.80;39.60;;;;;;5012407;28;20030;-60
2021/05/14 11:13:44;;;;;;;1.70;1.60;;;23.80;39.60;;;;;;5012803;28;20053;-58
2021/05/14 11:16:40;;;;;;;1.42;1.27;;;23.80;39.50;;;;;;5004296;28;20454;-55
2021/05/14 11:19:22;;;;;;;1.35;1.25;;;23.90;39.40;;;;;;5004187;28;20069;-58
2021/05/14 11:22:08;;;;;;;1.95;1.40;;;23.90;39.40;;;;;;5015861;28;20038;-59
2021/05/14 11:24:55;;;;;;;1.70;1.40;;;24.00;39.30;;;;;;5007207;28;20512;-56
2021/05/14 11:27:32;;;;;;;1.45;1.17;;;24.00;39.20;;;;;;5012477;28;20386;-62
2021/05/14 11:30:07;;;;;;;1.52;1.17;;;24.00;39.00;;;;;;5015543;28;20359;-62
2021/05/14 11:32:41;;;;;;;1.58;1.20;;;24.00;38.90;;;;;;5015882;28;20041;-61
2021/05/14 11:35:13;;;;;;;1.85;1.70;;;24.00;38.80;;;;;;5016236;28;20445;-56
2021/05/14 11:37:53;;;;;;;1.30;1.20;;;24.10;38.90;;;;;;5016712;28;20183;-57
2021/05/14 11:40:21;;;;;;;2.25;1.20;;;24.10;38.90;;;;;;5015494;28;20342;-59
2021/05/14 11:42:51;;;;;;;1.20;1.10;;;24.10;38.90;;;;;;5016231;28;20036;-59
2021/05/14 11:45:26;;;;;;;1.15;1.02;;;24.10;38.80;;;;;;5015013;28;20041;-59
2021/05/14 11:47:54;;;;;;;2.22;1.25;;;24.10;38.70;;;;;;5016554;28;20068;-53
2021/05/14 11:50:30;;;;;;;1.60;1.40;;;24.20;38.70;;;;;;5014872;28;20026;-59
2021/05/14 11:52:58;;;;;;;1.25;1.13;;;24.20;38.60;;;;;;5015427;28;20468;-61
2021/05/14 11:55:25;;;;;;;4.00;1.38;;;24.20;38.60;;;;;;5016563;28;20040;-61
2021/05/14 11:57:54;;;;;;;1.20;1.10;;;24.30;38.70;;;;;;5016011;28;20457;-60
2021/05/14 12:00:30;;;;;;;1.25;1.15;;;24.30;38.70;;;;;;5016272;28;20088;-60
2021/05/14 12:02:58;;;;;;;1.73;1.15;;;24.30;39.20;;;;;;5016381;28;20038;-56
2021/05/14 12:05:25;;;;;;;1.17;1.08;;;24.40;38.70;;;;;;5014193;28;20053;-55
2021/05/14 12:07:52;;;;;;;1.30;1.10;;;24.40;38.70;;;;;;5016295;28;20037;-55
2021/05/14 12:10:18;;;;;;;1.10;1.00;;;24.40;38.80;;;;;;5014949;28;20038;-54
2021/05/14 12:12:49;;;;;;;1.63;1.35;;;24.40;38.70;;;;;;4995717;28;20034;-55
2021/05/14 12:15:22;;;;;;;2.13;1.30;;;24.40;38.60;;;;;;5014135;28;20046;-52
2021/05/14 12:17:58;;;;;;;3.47;1.17;;;24.50;38.70;;;;;;5015111;28;20397;-58
2021/05/14 12:20:33;;;;;;;2.15;1.08;;;24.50;38.60;;;;;;5015251;28;20515;-57
2021/05/14 12:23:07;;;;;;;3.25;1.50;;;24.60;38.70;;;;;;5015249;28;20033;-56
2021/05/14 12:25:45;;;;;;;1.92;1.40;;;24.60;38.70;;;;;;5013991;28;20025;-59
2021/05/14 12:28:59;;;;;;;2.05;1.48;;;24.70;38.70;;;;;;5015401;28;20069;-56
2021/05/14 12:31:27;;;;;;;1.27;1.10;;;24.70;38.70;;;;;;5001205;28;20136;-59
2021/05/14 12:34:09;;;;;;;0.82;0.80;;;24.80;38.80;;;;;;5015475;28;20026;-52
2021/05/14 12:36:36;;;;;;;1.35;1.10;;;24.80;38.70;;;;;;5014795;28;20053;-54
2021/05/14 12:39:07;;;;;;;1.67;1.20;;;24.80;39.20;;;;;;5013266;28;20049;-59
2021/05/14 12:41:35;;;;;;;1.02;0.90;;;24.90;38.50;;;;;;5013972;28;20477;-61
2021/05/14 12:44:15;;;;;;;1.00;0.93;;;24.90;38.30;;;;;;5015100;28;20420;-56
2021/05/14 12:46:59;;;;;;;1.27;1.00;;;24.90;38.10;;;;;;5014091;28;20480;-53
2021/05/14 12:49:45;;;;;;;1.30;1.20;;;25.00;38.00;;;;;;4996092;28;20026;-57
2021/05/14 12:52:13;;;;;;;1.20;1.10;;;25.00;37.90;;;;;;5002721;28;20042;-59
2021/05/14 12:54:51;;;;;;;1.02;0.93;;;25.00;37.80;;;;;;5003159;28;20057;-58
2021/05/14 12:57:30;;;;;;;0.98;0.82;;;25.10;37.70;;;;;;5010917;28;20113;-62
2021/05/14 12:59:59;;;;;;;3.55;0.80;;;25.10;37.50;;;;;;4996193;28;20113;-59